<?xml version="1.0" encoding="UTF-8" standalone="no" ?>
<gpx xmlns="http://www.topografix.com/GPX/1/1" xmlns:xsi="http://www.w3.org/2001/XMLSchema-instance" xsi:schemaLocation="http://www.topografix.com/GPX/1/1 http://www.topografix.com/GPX/1/1/gpx.xsd" version="1.1" creator="VisuGPX - https://www.visugpx.com">
  <metadata>
    <name>13650690-PT-2-2021</name>
  </metadata>
  <trk>
    <name><![CDATA[13650690-PT-2-2021]]></name>
    <trkseg>
      <trkpt lat="44.34" lon="2.55256">
        <ele>605</ele>
        <time>2021-09-02T16:16:41Z</time>
      </trkpt>
      <trkpt lat="44.34034" lon="2.5513">
        <ele>605</ele>
        <time>2021-09-02T16:18:50Z</time>
      </trkpt>
      <trkpt lat="44.34069" lon="2.55203">
        <ele>604</ele>
        <time>2021-09-02T16:20:13Z</time>
      </trkpt>
      <trkpt lat="44.34079" lon="2.55225">
        <ele>603</ele>
        <time>2021-09-02T16:20:38Z</time>
      </trkpt>
      <trkpt lat="44.3409" lon="2.55228">
        <ele>603</ele>
        <time>2021-09-02T16:20:53Z</time>
      </trkpt>
      <trkpt lat="44.34103" lon="2.55251">
        <ele>603</ele>
        <time>2021-09-02T16:21:21Z</time>
      </trkpt>
      <trkpt lat="44.3413" lon="2.55255">
        <ele>602</ele>
        <time>2021-09-02T16:21:57Z</time>
      </trkpt>
      <trkpt lat="44.34186" lon="2.55261">
        <ele>600</ele>
        <time>2021-09-02T16:23:12Z</time>
      </trkpt>
      <trkpt lat="44.34185" lon="2.55276">
        <ele>601</ele>
        <time>2021-09-02T16:23:27Z</time>
      </trkpt>
      <trkpt lat="44.34195" lon="2.55348">
        <ele>602</ele>
        <time>2021-09-02T16:24:37Z</time>
      </trkpt>
      <trkpt lat="44.34187" lon="2.55388">
        <ele>603</ele>
        <time>2021-09-02T16:25:16Z</time>
      </trkpt>
      <trkpt lat="44.34216" lon="2.55393">
        <ele>602</ele>
        <time>2021-09-02T16:25:55Z</time>
      </trkpt>
      <trkpt lat="44.34235" lon="2.55375">
        <ele>601</ele>
        <time>2021-09-02T16:26:26Z</time>
      </trkpt>
      <trkpt lat="44.34252" lon="2.55363">
        <ele>600</ele>
        <time>2021-09-02T16:26:51Z</time>
      </trkpt>
      <trkpt lat="44.34271" lon="2.55367">
        <ele>599</ele>
        <time>2021-09-02T16:27:17Z</time>
      </trkpt>
      <trkpt lat="44.34288" lon="2.55363">
        <ele>598</ele>
        <time>2021-09-02T16:27:40Z</time>
      </trkpt>
      <trkpt lat="44.34308" lon="2.55293">
        <ele>595</ele>
        <time>2021-09-02T16:28:52Z</time>
      </trkpt>
      <trkpt lat="44.34346" lon="2.55267">
        <ele>593</ele>
        <time>2021-09-02T16:29:48Z</time>
      </trkpt>
      <trkpt lat="44.34372" lon="2.55236">
        <ele>591</ele>
        <time>2021-09-02T16:30:34Z</time>
      </trkpt>
      <trkpt lat="44.34489" lon="2.55144">
        <ele>589</ele>
        <time>2021-09-02T16:33:33Z</time>
      </trkpt>
      <trkpt lat="44.34499" lon="2.55145">
        <ele>590</ele>
        <time>2021-09-02T16:33:47Z</time>
      </trkpt>
      <trkpt lat="44.3453" lon="2.55071">
        <ele>585</ele>
        <time>2021-09-02T16:35:08Z</time>
      </trkpt>
      <trkpt lat="44.34522" lon="2.55059">
        <ele>583</ele>
        <time>2021-09-02T16:35:24Z</time>
      </trkpt>
      <trkpt lat="44.34521" lon="2.55047">
        <ele>582</ele>
        <time>2021-09-02T16:35:36Z</time>
      </trkpt>
      <trkpt lat="44.34524" lon="2.55034">
        <ele>580</ele>
        <time>2021-09-02T16:35:49Z</time>
      </trkpt>
      <trkpt lat="44.34558" lon="2.54938">
        <ele>574</ele>
        <time>2021-09-02T16:37:31Z</time>
      </trkpt>
      <trkpt lat="44.34576" lon="2.54907">
        <ele>571</ele>
        <time>2021-09-02T16:38:09Z</time>
      </trkpt>
      <trkpt lat="44.34638" lon="2.54842">
        <ele>569</ele>
        <time>2021-09-02T16:39:52Z</time>
      </trkpt>
      <trkpt lat="44.34692" lon="2.54754">
        <ele>559</ele>
        <time>2021-09-02T16:41:43Z</time>
      </trkpt>
      <trkpt lat="44.34751" lon="2.54628">
        <ele>548</ele>
        <time>2021-09-02T16:44:07Z</time>
      </trkpt>
      <trkpt lat="44.34778" lon="2.54613">
        <ele>546</ele>
        <time>2021-09-02T16:44:46Z</time>
      </trkpt>
      <trkpt lat="44.3482" lon="2.54616">
        <ele>551</ele>
        <time>2021-09-02T16:45:42Z</time>
      </trkpt>
      <trkpt lat="44.34847" lon="2.54625">
        <ele>556</ele>
        <time>2021-09-02T16:46:19Z</time>
      </trkpt>
      <trkpt lat="44.34847" lon="2.54608">
        <ele>549</ele>
        <time>2021-09-02T16:46:35Z</time>
      </trkpt>
      <trkpt lat="44.34753" lon="2.54585">
        <ele>535</ele>
        <time>2021-09-02T16:48:42Z</time>
      </trkpt>
      <trkpt lat="44.34738" lon="2.54596">
        <ele>538</ele>
        <time>2021-09-02T16:49:05Z</time>
      </trkpt>
      <trkpt lat="44.34695" lon="2.54652">
        <ele>546</ele>
        <time>2021-09-02T16:50:23Z</time>
      </trkpt>
      <trkpt lat="44.34681" lon="2.54687">
        <ele>548</ele>
        <time>2021-09-02T16:51:02Z</time>
      </trkpt>
      <trkpt lat="44.3466" lon="2.54692">
        <ele>547</ele>
        <time>2021-09-02T16:51:30Z</time>
      </trkpt>
      <trkpt lat="44.34633" lon="2.54762">
        <ele>557</ele>
        <time>2021-09-02T16:52:46Z</time>
      </trkpt>
      <trkpt lat="44.3459" lon="2.54817">
        <ele>562</ele>
        <time>2021-09-02T16:54:04Z</time>
      </trkpt>
      <trkpt lat="44.34543" lon="2.54865">
        <ele>569</ele>
        <time>2021-09-02T16:55:21Z</time>
      </trkpt>
      <trkpt lat="44.34515" lon="2.54927">
        <ele>569</ele>
        <time>2021-09-02T16:56:31Z</time>
      </trkpt>
      <trkpt lat="44.34493" lon="2.55008">
        <ele>575</ele>
        <time>2021-09-02T16:57:54Z</time>
      </trkpt>
      <trkpt lat="44.34472" lon="2.55021">
        <ele>577</ele>
        <time>2021-09-02T16:58:25Z</time>
      </trkpt>
      <trkpt lat="44.34447" lon="2.5499">
        <ele>577</ele>
        <time>2021-09-02T16:59:09Z</time>
      </trkpt>
      <trkpt lat="44.34458" lon="2.54837">
        <ele>580</ele>
        <time>2021-09-02T17:01:36Z</time>
      </trkpt>
      <trkpt lat="44.34448" lon="2.54786">
        <ele>587</ele>
        <time>2021-09-02T17:02:26Z</time>
      </trkpt>
      <trkpt lat="44.34392" lon="2.54717">
        <ele>594</ele>
        <time>2021-09-02T17:04:06Z</time>
      </trkpt>
      <trkpt lat="44.34358" lon="2.54603">
        <ele>595</ele>
        <time>2021-09-02T17:06:04Z</time>
      </trkpt>
      <trkpt lat="44.34369" lon="2.54533">
        <ele>594</ele>
        <time>2021-09-02T17:07:12Z</time>
      </trkpt>
      <trkpt lat="44.34334" lon="2.54439">
        <ele>593</ele>
        <time>2021-09-02T17:08:53Z</time>
      </trkpt>
      <trkpt lat="44.34327" lon="2.54352">
        <ele>586</ele>
        <time>2021-09-02T17:10:17Z</time>
      </trkpt>
      <trkpt lat="44.34328" lon="2.543">
        <ele>578</ele>
        <time>2021-09-02T17:11:07Z</time>
      </trkpt>
      <trkpt lat="44.34318" lon="2.54269">
        <ele>574</ele>
        <time>2021-09-02T17:11:39Z</time>
      </trkpt>
      <trkpt lat="44.34294" lon="2.54251">
        <ele>573</ele>
        <time>2021-09-02T17:12:15Z</time>
      </trkpt>
      <trkpt lat="44.34252" lon="2.54227">
        <ele>570</ele>
        <time>2021-09-02T17:13:16Z</time>
      </trkpt>
      <trkpt lat="44.3422" lon="2.5421">
        <ele>564</ele>
        <time>2021-09-02T17:14:02Z</time>
      </trkpt>
      <trkpt lat="44.34162" lon="2.54176">
        <ele>556</ele>
        <time>2021-09-02T17:15:26Z</time>
      </trkpt>
      <trkpt lat="44.34098" lon="2.54151">
        <ele>547</ele>
        <time>2021-09-02T17:16:54Z</time>
      </trkpt>
      <trkpt lat="44.34047" lon="2.5413">
        <ele>540</ele>
        <time>2021-09-02T17:18:05Z</time>
      </trkpt>
      <trkpt lat="44.34037" lon="2.54128">
        <ele>539</ele>
        <time>2021-09-02T17:18:19Z</time>
      </trkpt>
      <trkpt lat="44.34026" lon="2.54143">
        <ele>539</ele>
        <time>2021-09-02T17:18:39Z</time>
      </trkpt>
      <trkpt lat="44.34009" lon="2.54173">
        <ele>540</ele>
        <time>2021-09-02T17:19:16Z</time>
      </trkpt>
      <trkpt lat="44.33882" lon="2.54078">
        <ele>519</ele>
        <time>2021-09-02T17:22:28Z</time>
      </trkpt>
      <trkpt lat="44.33802" lon="2.54231">
        <ele>521</ele>
        <time>2021-09-02T17:25:29Z</time>
      </trkpt>
      <trkpt lat="44.33737" lon="2.54321">
        <ele>532</ele>
        <time>2021-09-02T17:27:31Z</time>
      </trkpt>
      <trkpt lat="44.33747" lon="2.54368">
        <ele>537</ele>
        <time>2021-09-02T17:28:18Z</time>
      </trkpt>
      <trkpt lat="44.33715" lon="2.54384">
        <ele>545</ele>
        <time>2021-09-02T17:29:03Z</time>
      </trkpt>
      <trkpt lat="44.33687" lon="2.54366">
        <ele>548</ele>
        <time>2021-09-02T17:29:44Z</time>
      </trkpt>
      <trkpt lat="44.33687" lon="2.54376">
        <ele>550</ele>
        <time>2021-09-02T17:29:54Z</time>
      </trkpt>
      <trkpt lat="44.33666" lon="2.54375">
        <ele>554</ele>
        <time>2021-09-02T17:30:22Z</time>
      </trkpt>
      <trkpt lat="44.33666" lon="2.54384">
        <ele>555</ele>
        <time>2021-09-02T17:30:30Z</time>
      </trkpt>
      <trkpt lat="44.33643" lon="2.54365">
        <ele>560</ele>
        <time>2021-09-02T17:31:06Z</time>
      </trkpt>
      <trkpt lat="44.33646" lon="2.54384">
        <ele>562</ele>
        <time>2021-09-02T17:31:25Z</time>
      </trkpt>
      <trkpt lat="44.33619" lon="2.54366">
        <ele>568</ele>
        <time>2021-09-02T17:32:05Z</time>
      </trkpt>
      <trkpt lat="44.33576" lon="2.54348">
        <ele>579</ele>
        <time>2021-09-02T17:33:04Z</time>
      </trkpt>
      <trkpt lat="44.33521" lon="2.54224">
        <ele>580</ele>
        <time>2021-09-02T17:35:24Z</time>
      </trkpt>
      <trkpt lat="44.33506" lon="2.54212">
        <ele>586</ele>
        <time>2021-09-02T17:35:47Z</time>
      </trkpt>
      <trkpt lat="44.33482" lon="2.54143">
        <ele>589</ele>
        <time>2021-09-02T17:37:00Z</time>
      </trkpt>
      <trkpt lat="44.33447" lon="2.54077">
        <ele>600</ele>
        <time>2021-09-02T17:38:18Z</time>
      </trkpt>
      <trkpt lat="44.33445" lon="2.54066">
        <ele>602</ele>
        <time>2021-09-02T17:38:29Z</time>
      </trkpt>
      <trkpt lat="44.3343" lon="2.54027">
        <ele>611</ele>
        <time>2021-09-02T17:39:12Z</time>
      </trkpt>
      <trkpt lat="44.33422" lon="2.53971">
        <ele>616</ele>
        <time>2021-09-02T17:40:06Z</time>
      </trkpt>
      <trkpt lat="44.33406" lon="2.53927">
        <ele>618</ele>
        <time>2021-09-02T17:40:53Z</time>
      </trkpt>
      <trkpt lat="44.33419" lon="2.53878">
        <ele>613</ele>
        <time>2021-09-02T17:41:43Z</time>
      </trkpt>
      <trkpt lat="44.33443" lon="2.53859">
        <ele>605</ele>
        <time>2021-09-02T17:42:20Z</time>
      </trkpt>
      <trkpt lat="44.3347" lon="2.53842">
        <ele>599</ele>
        <time>2021-09-02T17:42:59Z</time>
      </trkpt>
      <trkpt lat="44.3349" lon="2.5382">
        <ele>594</ele>
        <time>2021-09-02T17:43:33Z</time>
      </trkpt>
      <trkpt lat="44.33508" lon="2.53799">
        <ele>587</ele>
        <time>2021-09-02T17:44:05Z</time>
      </trkpt>
      <trkpt lat="44.33527" lon="2.53789">
        <ele>578</ele>
        <time>2021-09-02T17:44:32Z</time>
      </trkpt>
      <trkpt lat="44.33535" lon="2.53777">
        <ele>576</ele>
        <time>2021-09-02T17:44:47Z</time>
      </trkpt>
      <trkpt lat="44.33526" lon="2.53766">
        <ele>580</ele>
        <time>2021-09-02T17:45:03Z</time>
      </trkpt>
      <trkpt lat="44.33513" lon="2.53748">
        <ele>585</ele>
        <time>2021-09-02T17:45:28Z</time>
      </trkpt>
      <trkpt lat="44.33491" lon="2.53735">
        <ele>589</ele>
        <time>2021-09-02T17:46:00Z</time>
      </trkpt>
      <trkpt lat="44.33486" lon="2.53714">
        <ele>587</ele>
        <time>2021-09-02T17:46:21Z</time>
      </trkpt>
      <trkpt lat="44.33491" lon="2.53653">
        <ele>575</ele>
        <time>2021-09-02T17:47:19Z</time>
      </trkpt>
      <trkpt lat="44.33485" lon="2.53618">
        <ele>573</ele>
        <time>2021-09-02T17:47:54Z</time>
      </trkpt>
      <trkpt lat="44.33473" lon="2.53597">
        <ele>574</ele>
        <time>2021-09-02T17:48:19Z</time>
      </trkpt>
      <trkpt lat="44.33452" lon="2.53551">
        <ele>576</ele>
        <time>2021-09-02T17:49:11Z</time>
      </trkpt>
      <trkpt lat="44.33436" lon="2.535">
        <ele>576</ele>
        <time>2021-09-02T17:50:05Z</time>
      </trkpt>
      <trkpt lat="44.33437" lon="2.53468">
        <ele>575</ele>
        <time>2021-09-02T17:50:35Z</time>
      </trkpt>
      <trkpt lat="44.33449" lon="2.53475">
        <ele>570</ele>
        <time>2021-09-02T17:50:53Z</time>
      </trkpt>
      <trkpt lat="44.33465" lon="2.53502">
        <ele>565</ele>
        <time>2021-09-02T17:51:26Z</time>
      </trkpt>
      <trkpt lat="44.33481" lon="2.53522">
        <ele>561</ele>
        <time>2021-09-02T17:51:55Z</time>
      </trkpt>
      <trkpt lat="44.3349" lon="2.53524">
        <ele>558</ele>
        <time>2021-09-02T17:52:07Z</time>
      </trkpt>
      <trkpt lat="44.3349" lon="2.53509">
        <ele>555</ele>
        <time>2021-09-02T17:52:21Z</time>
      </trkpt>
      <trkpt lat="44.33488" lon="2.53478">
        <ele>553</ele>
        <time>2021-09-02T17:52:51Z</time>
      </trkpt>
      <trkpt lat="44.33493" lon="2.53456">
        <ele>549</ele>
        <time>2021-09-02T17:53:13Z</time>
      </trkpt>
      <trkpt lat="44.33512" lon="2.53459">
        <ele>542</ele>
        <time>2021-09-02T17:53:38Z</time>
      </trkpt>
      <trkpt lat="44.33554" lon="2.53506">
        <ele>536</ele>
        <time>2021-09-02T17:54:50Z</time>
      </trkpt>
      <trkpt lat="44.33585" lon="2.53517">
        <ele>529</ele>
        <time>2021-09-02T17:55:33Z</time>
      </trkpt>
      <trkpt lat="44.33611" lon="2.53511">
        <ele>523</ele>
        <time>2021-09-02T17:56:08Z</time>
      </trkpt>
      <trkpt lat="44.33636" lon="2.53509">
        <ele>517</ele>
        <time>2021-09-02T17:56:41Z</time>
      </trkpt>
      <trkpt lat="44.3365" lon="2.53519">
        <ele>515</ele>
        <time>2021-09-02T17:57:02Z</time>
      </trkpt>
      <trkpt lat="44.33663" lon="2.5354">
        <ele>514</ele>
        <time>2021-09-02T17:57:29Z</time>
      </trkpt>
      <trkpt lat="44.33684" lon="2.53576">
        <ele>516</ele>
        <time>2021-09-02T17:58:13Z</time>
      </trkpt>
      <trkpt lat="44.33696" lon="2.53578">
        <ele>516</ele>
        <time>2021-09-02T17:58:29Z</time>
      </trkpt>
      <trkpt lat="44.33677" lon="2.53531">
        <ele>513</ele>
        <time>2021-09-02T17:59:21Z</time>
      </trkpt>
      <trkpt lat="44.33667" lon="2.53489">
        <ele>509</ele>
        <time>2021-09-02T18:00:03Z</time>
      </trkpt>
      <trkpt lat="44.33639" lon="2.53435">
        <ele>512</ele>
        <time>2021-09-02T18:01:07Z</time>
      </trkpt>
      <trkpt lat="44.33611" lon="2.53385">
        <ele>512</ele>
        <time>2021-09-02T18:02:07Z</time>
      </trkpt>
      <trkpt lat="44.33584" lon="2.53327">
        <ele>508</ele>
        <time>2021-09-02T18:03:13Z</time>
      </trkpt>
      <trkpt lat="44.33562" lon="2.53265">
        <ele>515</ele>
        <time>2021-09-02T18:04:20Z</time>
      </trkpt>
      <trkpt lat="44.33546" lon="2.53211">
        <ele>522</ele>
        <time>2021-09-02T18:05:15Z</time>
      </trkpt>
      <trkpt lat="44.33532" lon="2.5314">
        <ele>527</ele>
        <time>2021-09-02T18:06:26Z</time>
      </trkpt>
      <trkpt lat="44.3352" lon="2.53078">
        <ele>531</ele>
        <time>2021-09-02T18:07:27Z</time>
      </trkpt>
      <trkpt lat="44.33518" lon="2.53024">
        <ele>527</ele>
        <time>2021-09-02T18:08:19Z</time>
      </trkpt>
      <trkpt lat="44.33513" lon="2.52966">
        <ele>526</ele>
        <time>2021-09-02T18:09:14Z</time>
      </trkpt>
      <trkpt lat="44.33526" lon="2.52901">
        <ele>523</ele>
        <time>2021-09-02T18:10:19Z</time>
      </trkpt>
      <trkpt lat="44.33537" lon="2.52828">
        <ele>523</ele>
        <time>2021-09-02T18:11:30Z</time>
      </trkpt>
      <trkpt lat="44.33549" lon="2.52763">
        <ele>524</ele>
        <time>2021-09-02T18:12:34Z</time>
      </trkpt>
      <trkpt lat="44.33558" lon="2.52728">
        <ele>523</ele>
        <time>2021-09-02T18:13:09Z</time>
      </trkpt>
      <trkpt lat="44.33575" lon="2.52691">
        <ele>519</ele>
        <time>2021-09-02T18:13:51Z</time>
      </trkpt>
      <trkpt lat="44.33596" lon="2.52664">
        <ele>517</ele>
        <time>2021-09-02T18:14:30Z</time>
      </trkpt>
      <trkpt lat="44.3361" lon="2.52658">
        <ele>514</ele>
        <time>2021-09-02T18:14:49Z</time>
      </trkpt>
      <trkpt lat="44.33614" lon="2.52643">
        <ele>514</ele>
        <time>2021-09-02T18:15:04Z</time>
      </trkpt>
      <trkpt lat="44.336" lon="2.52635">
        <ele>515</ele>
        <time>2021-09-02T18:15:25Z</time>
      </trkpt>
      <trkpt lat="44.33579" lon="2.52641">
        <ele>519</ele>
        <time>2021-09-02T18:15:53Z</time>
      </trkpt>
      <trkpt lat="44.33553" lon="2.52648">
        <ele>527</ele>
        <time>2021-09-02T18:16:28Z</time>
      </trkpt>
      <trkpt lat="44.33536" lon="2.52654">
        <ele>533</ele>
        <time>2021-09-02T18:16:52Z</time>
      </trkpt>
      <trkpt lat="44.33524" lon="2.52659">
        <ele>537</ele>
        <time>2021-09-02T18:17:09Z</time>
      </trkpt>
      <trkpt lat="44.33514" lon="2.52677">
        <ele>541</ele>
        <time>2021-09-02T18:17:30Z</time>
      </trkpt>
      <trkpt lat="44.33501" lon="2.52696">
        <ele>546</ele>
        <time>2021-09-02T18:17:55Z</time>
      </trkpt>
      <trkpt lat="44.33491" lon="2.52716">
        <ele>547</ele>
        <time>2021-09-02T18:18:19Z</time>
      </trkpt>
      <trkpt lat="44.33484" lon="2.52746">
        <ele>549</ele>
        <time>2021-09-02T18:18:49Z</time>
      </trkpt>
      <trkpt lat="44.33479" lon="2.52758">
        <ele>550</ele>
        <time>2021-09-02T18:19:02Z</time>
      </trkpt>
      <trkpt lat="44.33473" lon="2.52772">
        <ele>550</ele>
        <time>2021-09-02T18:19:18Z</time>
      </trkpt>
      <trkpt lat="44.33473" lon="2.52795">
        <ele>549</ele>
        <time>2021-09-02T18:19:40Z</time>
      </trkpt>
      <trkpt lat="44.33466" lon="2.52812">
        <ele>550</ele>
        <time>2021-09-02T18:19:58Z</time>
      </trkpt>
      <trkpt lat="44.33454" lon="2.52821">
        <ele>554</ele>
        <time>2021-09-02T18:20:17Z</time>
      </trkpt>
      <trkpt lat="44.33447" lon="2.52857">
        <ele>556</ele>
        <time>2021-09-02T18:20:52Z</time>
      </trkpt>
      <trkpt lat="44.33434" lon="2.52871">
        <ele>562</ele>
        <time>2021-09-02T18:21:14Z</time>
      </trkpt>
      <trkpt lat="44.33423" lon="2.52883">
        <ele>567</ele>
        <time>2021-09-02T18:21:33Z</time>
      </trkpt>
      <trkpt lat="44.33404" lon="2.52903">
        <ele>572</ele>
        <time>2021-09-02T18:22:04Z</time>
      </trkpt>
      <trkpt lat="44.33394" lon="2.52939">
        <ele>577</ele>
        <time>2021-09-02T18:22:41Z</time>
      </trkpt>
      <trkpt lat="44.33391" lon="2.52953">
        <ele>580</ele>
        <time>2021-09-02T18:22:55Z</time>
      </trkpt>
      <trkpt lat="44.33389" lon="2.52962">
        <ele>581</ele>
        <time>2021-09-02T18:23:04Z</time>
      </trkpt>
      <trkpt lat="44.33382" lon="2.52978">
        <ele>585</ele>
        <time>2021-09-02T18:23:22Z</time>
      </trkpt>
      <trkpt lat="44.33383" lon="2.52999">
        <ele>588</ele>
        <time>2021-09-02T18:23:42Z</time>
      </trkpt>
      <trkpt lat="44.33374" lon="2.53037">
        <ele>595</ele>
        <time>2021-09-02T18:24:20Z</time>
      </trkpt>
      <trkpt lat="44.33368" lon="2.53073">
        <ele>601</ele>
        <time>2021-09-02T18:24:56Z</time>
      </trkpt>
      <trkpt lat="44.33369" lon="2.53138">
        <ele>607</ele>
        <time>2021-09-02T18:25:58Z</time>
      </trkpt>
      <trkpt lat="44.33362" lon="2.53196">
        <ele>612</ele>
        <time>2021-09-02T18:26:54Z</time>
      </trkpt>
      <trkpt lat="44.33359" lon="2.53226">
        <ele>615</ele>
        <time>2021-09-02T18:27:23Z</time>
      </trkpt>
      <trkpt lat="44.33357" lon="2.53273">
        <ele>617</ele>
        <time>2021-09-02T18:28:08Z</time>
      </trkpt>
      <trkpt lat="44.33332" lon="2.5332">
        <ele>626</ele>
        <time>2021-09-02T18:29:04Z</time>
      </trkpt>
      <trkpt lat="44.33322" lon="2.53377">
        <ele>622</ele>
        <time>2021-09-02T18:30:00Z</time>
      </trkpt>
      <trkpt lat="44.33327" lon="2.53437">
        <ele>616</ele>
        <time>2021-09-02T18:30:57Z</time>
      </trkpt>
      <trkpt lat="44.33342" lon="2.53494">
        <ele>608</ele>
        <time>2021-09-02T18:31:55Z</time>
      </trkpt>
      <trkpt lat="44.33362" lon="2.53555">
        <ele>605</ele>
        <time>2021-09-02T18:32:59Z</time>
      </trkpt>
      <trkpt lat="44.33389" lon="2.53602">
        <ele>602</ele>
        <time>2021-09-02T18:33:57Z</time>
      </trkpt>
      <trkpt lat="44.33417" lon="2.53658">
        <ele>601</ele>
        <time>2021-09-02T18:35:02Z</time>
      </trkpt>
      <trkpt lat="44.33438" lon="2.53709">
        <ele>599</ele>
        <time>2021-09-02T18:35:58Z</time>
      </trkpt>
      <trkpt lat="44.33446" lon="2.53766">
        <ele>602</ele>
        <time>2021-09-02T18:36:54Z</time>
      </trkpt>
      <trkpt lat="44.33443" lon="2.53805">
        <ele>604</ele>
        <time>2021-09-02T18:37:31Z</time>
      </trkpt>
      <trkpt lat="44.33434" lon="2.53848">
        <ele>607</ele>
        <time>2021-09-02T18:38:14Z</time>
      </trkpt>
      <trkpt lat="44.33423" lon="2.53866">
        <ele>611</ele>
        <time>2021-09-02T18:38:37Z</time>
      </trkpt>
      <trkpt lat="44.334" lon="2.53946">
        <ele>618</ele>
        <time>2021-09-02T18:39:59Z</time>
      </trkpt>
      <trkpt lat="44.33412" lon="2.53988">
        <ele>618</ele>
        <time>2021-09-02T18:40:42Z</time>
      </trkpt>
      <trkpt lat="44.33416" lon="2.54027">
        <ele>616</ele>
        <time>2021-09-02T18:41:20Z</time>
      </trkpt>
      <trkpt lat="44.33406" lon="2.54076">
        <ele>613</ele>
        <time>2021-09-02T18:42:08Z</time>
      </trkpt>
      <trkpt lat="44.33397" lon="2.54123">
        <ele>612</ele>
        <time>2021-09-02T18:42:55Z</time>
      </trkpt>
      <trkpt lat="44.33393" lon="2.54204">
        <ele>611</ele>
        <time>2021-09-02T18:44:12Z</time>
      </trkpt>
      <trkpt lat="44.3339" lon="2.54241">
        <ele>610</ele>
        <time>2021-09-02T18:44:48Z</time>
      </trkpt>
      <trkpt lat="44.33389" lon="2.54296">
        <ele>609</ele>
        <time>2021-09-02T18:45:40Z</time>
      </trkpt>
      <trkpt lat="44.33386" lon="2.54344">
        <ele>609</ele>
        <time>2021-09-02T18:46:26Z</time>
      </trkpt>
      <trkpt lat="44.33394" lon="2.54374">
        <ele>610</ele>
        <time>2021-09-02T18:46:57Z</time>
      </trkpt>
      <trkpt lat="44.33435" lon="2.54451">
        <ele>612</ele>
        <time>2021-09-02T18:48:28Z</time>
      </trkpt>
      <trkpt lat="44.33443" lon="2.54495">
        <ele>613</ele>
        <time>2021-09-02T18:49:12Z</time>
      </trkpt>
      <trkpt lat="44.33455" lon="2.54534">
        <ele>613</ele>
        <time>2021-09-02T18:49:52Z</time>
      </trkpt>
      <trkpt lat="44.33457" lon="2.54564">
        <ele>613</ele>
        <time>2021-09-02T18:50:21Z</time>
      </trkpt>
      <trkpt lat="44.33451" lon="2.54603">
        <ele>615</ele>
        <time>2021-09-02T18:50:59Z</time>
      </trkpt>
      <trkpt lat="44.33444" lon="2.54652">
        <ele>617</ele>
        <time>2021-09-02T18:51:47Z</time>
      </trkpt>
      <trkpt lat="44.33441" lon="2.54691">
        <ele>618</ele>
        <time>2021-09-02T18:52:24Z</time>
      </trkpt>
      <trkpt lat="44.33457" lon="2.54737">
        <ele>617</ele>
        <time>2021-09-02T18:53:13Z</time>
      </trkpt>
      <trkpt lat="44.33482" lon="2.54803">
        <ele>614</ele>
        <time>2021-09-02T18:54:24Z</time>
      </trkpt>
      <trkpt lat="44.33503" lon="2.54861">
        <ele>613</ele>
        <time>2021-09-02T18:55:26Z</time>
      </trkpt>
      <trkpt lat="44.33511" lon="2.54887">
        <ele>614</ele>
        <time>2021-09-02T18:55:53Z</time>
      </trkpt>
      <trkpt lat="44.33562" lon="2.54987">
        <ele>614</ele>
        <time>2021-09-02T18:57:51Z</time>
      </trkpt>
      <trkpt lat="44.33577" lon="2.55002">
        <ele>613</ele>
        <time>2021-09-02T18:58:15Z</time>
      </trkpt>
      <trkpt lat="44.33603" lon="2.55033">
        <ele>614</ele>
        <time>2021-09-02T18:59:01Z</time>
      </trkpt>
      <trkpt lat="44.33618" lon="2.55017">
        <ele>614</ele>
        <time>2021-09-02T18:59:26Z</time>
      </trkpt>
      <trkpt lat="44.33696" lon="2.54979">
        <ele>615</ele>
        <time>2021-09-02T19:01:16Z</time>
      </trkpt>
      <trkpt lat="44.3374" lon="2.54968">
        <ele>615</ele>
        <time>2021-09-02T19:02:16Z</time>
      </trkpt>
      <trkpt lat="44.33764" lon="2.5495">
        <ele>615</ele>
        <time>2021-09-02T19:02:52Z</time>
      </trkpt>
      <trkpt lat="44.33783" lon="2.54999">
        <ele>614</ele>
        <time>2021-09-02T19:03:45Z</time>
      </trkpt>
      <trkpt lat="44.33775" lon="2.55059">
        <ele>612</ele>
        <time>2021-09-02T19:04:44Z</time>
      </trkpt>
      <trkpt lat="44.33809" lon="2.55077">
        <ele>612</ele>
        <time>2021-09-02T19:05:32Z</time>
      </trkpt>
      <trkpt lat="44.33822" lon="2.55115">
        <ele>611</ele>
        <time>2021-09-02T19:06:12Z</time>
      </trkpt>
      <trkpt lat="44.33818" lon="2.55151">
        <ele>609</ele>
        <time>2021-09-02T19:06:47Z</time>
      </trkpt>
      <trkpt lat="44.3382" lon="2.55211">
        <ele>608</ele>
        <time>2021-09-02T19:07:45Z</time>
      </trkpt>
      <trkpt lat="44.33862" lon="2.55218">
        <ele>607</ele>
        <time>2021-09-02T19:08:41Z</time>
      </trkpt>
      <trkpt lat="44.33878" lon="2.55222">
        <ele>607</ele>
        <time>2021-09-02T19:09:03Z</time>
      </trkpt>
      <trkpt lat="44.33895" lon="2.55216">
        <ele>607</ele>
        <time>2021-09-02T19:09:26Z</time>
      </trkpt>
      <trkpt lat="44.33911" lon="2.55209">
        <ele>607</ele>
        <time>2021-09-02T19:09:48Z</time>
      </trkpt>
      <trkpt lat="44.33949" lon="2.55092">
        <ele>609</ele>
        <time>2021-09-02T19:11:51Z</time>
      </trkpt>
      <trkpt lat="44.33975" lon="2.55102">
        <ele>608</ele>
        <time>2021-09-02T19:12:27Z</time>
      </trkpt>
      <trkpt lat="44.33986" lon="2.55068">
        <ele>607</ele>
        <time>2021-09-02T19:13:03Z</time>
      </trkpt>
      <trkpt lat="44.34016" lon="2.55081">
        <ele>606</ele>
        <time>2021-09-02T19:13:45Z</time>
      </trkpt>
      <trkpt lat="44.34028" lon="2.55069">
        <ele>605</ele>
        <time>2021-09-02T19:14:04Z</time>
      </trkpt>
    </trkseg>
  </trk>
</gpx>